sensor_id;sensor_type;location;lat;lon;timestamp;P1;durP1;ratioP1;P2;durP2;ratioP2
35562;SDS011;21665;40.108;18.302;2022-12-18T00:38:57;51.28;;;27.38;;
35562;SDS011;21665;40.108;18.302;2022-12-18T00:59:09;41.85;;;24.95;;
35562;SDS011;21665;40.108;18.302;2022-12-18T01:01:38;45.88;;;27.65;;
35562;SDS011;21665;40.108;18.302;2022-12-18T01:04:05;48.38;;;29.92;;
35562;SDS011;21665;40.108;18.302;2022-12-18T01:06:32;44.03;;;28.60;;
35562;SDS011;21665;40.108;18.302;2022-12-18T01:08:59;45.65;;;27.83;;
35562;SDS011;21665;40.108;18.302;2022-12-18T01:11:25;39.95;;;26.98;;
35562;SDS011;21665;40.108;18.302;2022-12-18T01:13:52;45.00;;;26.67;;
35562;SDS011;21665;40.108;18.302;2022-12-18T01:16:21;42.95;;;24.90;;
35562;SDS011;21665;40.108;18.302;2022-12-18T01:18:51;45.42;;;26.52;;
35562;SDS011;21665;40.108;18.302;2022-12-18T01:21:19;42.80;;;25.40;;
35562;SDS011;21665;40.108;18.302;2022-12-18T01:23:59;40.17;;;25.50;;
35562;SDS011;21665;40.108;18.302;2022-12-18T01:26:26;40.55;;;25.92;;
35562;SDS011;21665;40.108;18.302;2022-12-18T01:28:56;41.90;;;25.95;;
35562;SDS011;21665;40.108;18.302;2022-12-18T01:31:27;41.63;;;26.25;;
35562;SDS011;21665;40.108;18.302;2022-12-18T01:33:56;41.42;;;25.90;;
35562;SDS011;21665;40.108;18.302;2022-12-18T01:36:27;44.85;;;26.55;;
35562;SDS011;21665;40.108;18.302;2022-12-18T01:39:06;41.40;;;24.92;;
35562;SDS011;21665;40.108;18.302;2022-12-18T01:41:41;46.70;;;27.15;;
35562;SDS011;21665;40.108;18.302;2022-12-18T01:50:22;43.17;;;26.65;;
35562;SDS011;21665;40.108;18.302;2022-12-18T01:52:54;43.22;;;26.35;;
35562;SDS011;21665;40.108;18.302;2022-12-18T01:55:29;39.50;;;26.23;;
35562;SDS011;21665;40.108;18.302;2022-12-18T01:58:01;43.38;;;26.98;;
35562;SDS011;21665;40.108;18.302;2022-12-18T02:00:29;42.28;;;27.63;;
35562;SDS011;21665;40.108;18.302;2022-12-18T02:02:56;40.47;;;26.58;;
35562;SDS011;21665;40.108;18.302;2022-12-18T02:05:26;42.40;;;25.77;;
35562;SDS011;21665;40.108;18.302;2022-12-18T02:10:31;40.05;;;25.65;;
35562;SDS011;21665;40.108;18.302;2022-12-18T02:19:15;40.88;;;27.27;;
35562;SDS011;21665;40.108;18.302;2022-12-18T02:21:57;41.90;;;26.38;;
35562;SDS011;21665;40.108;18.302;2022-12-18T02:27:37;40.67;;;25.92;;
35562;SDS011;21665;40.108;18.302;2022-12-18T02:30:08;45.28;;;28.90;;
35562;SDS011;21665;40.108;18.302;2022-12-18T02:32:38;41.72;;;26.35;;
35562;SDS011;21665;40.108;18.302;2022-12-18T02:35:12;41.13;;;26.65;;
35562;SDS011;21665;40.108;18.302;2022-12-18T02:37:49;38.03;;;26.58;;
35562;SDS011;21665;40.108;18.302;2022-12-18T02:40:21;49.08;;;30.05;;
35562;SDS011;21665;40.108;18.302;2022-12-18T02:42:51;56.08;;;34.60;;
35562;SDS011;21665;40.108;18.302;2022-12-18T02:45:22;62.10;;;36.53;;
35562;SDS011;21665;40.108;18.302;2022-12-18T02:47:51;58.05;;;37.80;;
35562;SDS011;21665;40.108;18.302;2022-12-18T02:50:30;69.25;;;38.75;;
35562;SDS011;21665;40.108;18.302;2022-12-18T03:01:59;78.13;;;46.20;;
35562;SDS011;21665;40.108;18.302;2022-12-18T03:04:45;67.07;;;44.13;;
35562;SDS011;21665;40.108;18.302;2022-12-18T03:07:35;70.13;;;42.08;;
35562;SDS011;21665;40.108;18.302;2022-12-18T03:10:14;68.57;;;42.42;;
35562;SDS011;21665;40.108;18.302;2022-12-18T03:12:47;73.78;;;42.33;;
35562;SDS011;21665;40.108;18.302;2022-12-18T03:15:24;69.18;;;41.67;;
35562;SDS011;21665;40.108;18.302;2022-12-18T03:21:06;61.55;;;38.10;;
35562;SDS011;21665;40.108;18.302;2022-12-18T03:23:47;60.63;;;37.45;;
35562;SDS011;21665;40.108;18.302;2022-12-18T03:26:24;56.97;;;35.75;;
35562;SDS011;21665;40.108;18.302;2022-12-18T03:29:02;59.25;;;35.58;;
35562;SDS011;21665;40.108;18.302;2022-12-18T03:31:45;62.50;;;34.72;;
35562;SDS011;21665;40.108;18.302;2022-12-18T03:34:20;52.67;;;32.08;;
35562;SDS011;21665;40.108;18.302;2022-12-18T03:39:36;51.50;;;31.48;;
35562;SDS011;21665;40.108;18.302;2022-12-18T03:50:41;42.72;;;29.33;;
35562;SDS011;21665;40.108;18.302;2022-12-18T03:56:07;33.97;;;22.05;;
35562;SDS011;21665;40.108;18.302;2022-12-18T03:58:40;34.05;;;20.95;;
35562;SDS011;21665;40.108;18.302;2022-12-18T04:01:16;33.22;;;19.05;;
35562;SDS011;21665;40.108;18.302;2022-12-18T04:03:46;27.38;;;18.77;;
35562;SDS011;21665;40.108;18.302;2022-12-18T04:06:18;27.23;;;17.38;;
35562;SDS011;21665;40.108;18.302;2022-12-18T04:08:45;30.45;;;18.27;;
35562;SDS011;21665;40.108;18.302;2022-12-18T04:11:18;32.45;;;21.10;;
35562;SDS011;21665;40.108;18.302;2022-12-18T04:13:46;31.40;;;20.60;;
35562;SDS011;21665;40.108;18.302;2022-12-18T04:16:39;31.00;;;19.10;;
35562;SDS011;21665;40.108;18.302;2022-12-18T04:19:09;36.80;;;20.27;;
35562;SDS011;21665;40.108;18.302;2022-12-18T04:21:42;31.95;;;19.02;;
35562;SDS011;21665;40.108;18.302;2022-12-18T04:24:14;33.22;;;18.90;;
35562;SDS011;21665;40.108;18.302;2022-12-18T04:26:49;27.98;;;18.02;;
35562;SDS011;21665;40.108;18.302;2022-12-18T04:29:21;32.72;;;20.27;;
35562;SDS011;21665;40.108;18.302;2022-12-18T04:31:48;32.40;;;17.55;;
35562;SDS011;21665;40.108;18.302;2022-12-18T04:34:18;30.02;;;17.33;;
35562;SDS011;21665;40.108;18.302;2022-12-18T04:36:49;27.77;;;17.52;;
35562;SDS011;21665;40.108;18.302;2022-12-18T04:39:17;25.95;;;17.75;;
35562;SDS011;21665;40.108;18.302;2022-12-18T04:41:48;30.33;;;18.77;;
35562;SDS011;21665;40.108;18.302;2022-12-18T04:44:15;32.72;;;18.02;;
35562;SDS011;21665;40.108;18.302;2022-12-18T04:46:41;28.75;;;17.77;;
35562;SDS011;21665;40.108;18.302;2022-12-18T04:49:14;29.65;;;18.75;;
35562;SDS011;21665;40.108;18.302;2022-12-18T04:51:41;28.48;;;18.60;;
35562;SDS011;21665;40.108;18.302;2022-12-18T04:54:08;30.58;;;18.35;;
35562;SDS011;21665;40.108;18.302;2022-12-18T04:56:37;26.50;;;16.80;;
35562;SDS011;21665;40.108;18.302;2022-12-18T04:59:04;28.27;;;18.10;;
35562;SDS011;21665;40.108;18.302;2022-12-18T05:01:31;23.15;;;15.05;;
35562;SDS011;21665;40.108;18.302;2022-12-18T05:03:57;29.88;;;16.63;;
35562;SDS011;21665;40.108;18.302;2022-12-18T05:06:24;25.67;;;16.38;;
35562;SDS011;21665;40.108;18.302;2022-12-18T05:08:51;25.45;;;16.52;;
35562;SDS011;21665;40.108;18.302;2022-12-18T05:11:17;27.25;;;16.13;;
35562;SDS011;21665;40.108;18.302;2022-12-18T05:13:44;25.55;;;15.23;;
35562;SDS011;21665;40.108;18.302;2022-12-18T05:16:11;24.75;;;14.50;;
35562;SDS011;21665;40.108;18.302;2022-12-18T05:18:38;21.27;;;13.73;;
35562;SDS011;21665;40.108;18.302;2022-12-18T05:21:05;21.52;;;13.25;;
35562;SDS011;21665;40.108;18.302;2022-12-18T05:23:35;18.58;;;13.05;;
35562;SDS011;21665;40.108;18.302;2022-12-18T05:26:02;23.15;;;14.30;;
35562;SDS011;21665;40.108;18.302;2022-12-18T05:28:37;20.10;;;13.52;;
35562;SDS011;21665;40.108;18.302;2022-12-18T05:31:03;25.10;;;14.65;;
35562;SDS011;21665;40.108;18.302;2022-12-18T05:33:32;22.60;;;14.50;;
35562;SDS011;21665;40.108;18.302;2022-12-18T05:36:03;21.70;;;13.32;;
35562;SDS011;21665;40.108;18.302;2022-12-18T05:38:36;21.25;;;11.75;;
35562;SDS011;21665;40.108;18.302;2022-12-18T05:41:05;19.95;;;12.93;;
35562;SDS011;21665;40.108;18.302;2022-12-18T05:43:33;19.58;;;11.32;;
35562;SDS011;21665;40.108;18.302;2022-12-18T05:46:05;19.30;;;12.20;;
35562;SDS011;21665;40.108;18.302;2022-12-18T05:48:33;17.75;;;11.45;;
35562;SDS011;21665;40.108;18.302;2022-12-18T05:51:04;17.65;;;11.65;;
35562;SDS011;21665;40.108;18.302;2022-12-18T05:53:37;17.05;;;11.38;;
35562;SDS011;21665;40.108;18.302;2022-12-18T05:56:05;18.52;;;11.18;;
35562;SDS011;21665;40.108;18.302;2022-12-18T05:58:34;15.13;;;10.80;;
35562;SDS011;21665;40.108;18.302;2022-12-18T06:01:09;29.05;;;11.50;;
35562;SDS011;21665;40.108;18.302;2022-12-18T06:03:38;23.02;;;11.32;;
35562;SDS011;21665;40.108;18.302;2022-12-18T06:06:18;23.65;;;11.23;;
35562;SDS011;21665;40.108;18.302;2022-12-18T06:08:51;19.80;;;10.80;;
35562;SDS011;21665;40.108;18.302;2022-12-18T06:11:20;17.98;;;10.48;;
35562;SDS011;21665;40.108;18.302;2022-12-18T06:13:55;20.92;;;10.75;;
35562;SDS011;21665;40.108;18.302;2022-12-18T06:16:22;21.97;;;11.30;;
35562;SDS011;21665;40.108;18.302;2022-12-18T06:18:49;18.38;;;11.15;;
35562;SDS011;21665;40.108;18.302;2022-12-18T06:21:15;19.75;;;11.40;;
35562;SDS011;21665;40.108;18.302;2022-12-18T06:23:42;17.33;;;11.07;;
35562;SDS011;21665;40.108;18.302;2022-12-18T06:26:10;17.42;;;10.82;;
35562;SDS011;21665;40.108;18.302;2022-12-18T06:28:42;22.58;;;11.20;;
35562;SDS011;21665;40.108;18.302;2022-12-18T06:31:09;20.02;;;11.45;;
35562;SDS011;21665;40.108;18.302;2022-12-18T06:33:36;18.08;;;10.63;;
35562;SDS011;21665;40.108;18.302;2022-12-18T06:36:07;17.92;;;10.77;;
35562;SDS011;21665;40.108;18.302;2022-12-18T06:38:37;20.45;;;10.30;;
35562;SDS011;21665;40.108;18.302;2022-12-18T06:41:13;14.90;;;10.32;;
35562;SDS011;21665;40.108;18.302;2022-12-18T06:43:46;15.13;;;9.65;;
35562;SDS011;21665;40.108;18.302;2022-12-18T06:46:12;18.35;;;10.45;;
35562;SDS011;21665;40.108;18.302;2022-12-18T06:48:40;20.13;;;10.30;;
35562;SDS011;21665;40.108;18.302;2022-12-18T06:51:06;15.88;;;11.13;;
35562;SDS011;21665;40.108;18.302;2022-12-18T06:53:33;21.05;;;10.80;;
35562;SDS011;21665;40.108;18.302;2022-12-18T06:56:03;19.80;;;11.75;;
35562;SDS011;21665;40.108;18.302;2022-12-18T06:58:32;17.20;;;11.35;;
35562;SDS011;21665;40.108;18.302;2022-12-18T07:00:59;17.10;;;11.15;;
35562;SDS011;21665;40.108;18.302;2022-12-18T07:03:30;18.48;;;10.82;;
35562;SDS011;21665;40.108;18.302;2022-12-18T07:05:57;17.83;;;11.00;;
35562;SDS011;21665;40.108;18.302;2022-12-18T07:08:24;19.92;;;11.30;;
35562;SDS011;21665;40.108;18.302;2022-12-18T07:10:51;20.77;;;11.90;;
35562;SDS011;21665;40.108;18.302;2022-12-18T07:13:22;21.17;;;11.15;;
35562;SDS011;21665;40.108;18.302;2022-12-18T07:15:49;24.80;;;11.50;;
35562;SDS011;21665;40.108;18.302;2022-12-18T07:18:16;20.95;;;11.65;;
35562;SDS011;21665;40.108;18.302;2022-12-18T07:20:52;16.98;;;10.55;;
35562;SDS011;21665;40.108;18.302;2022-12-18T07:23:18;16.98;;;10.40;;
35562;SDS011;21665;40.108;18.302;2022-12-18T07:25:45;16.58;;;10.00;;
35562;SDS011;21665;40.108;18.302;2022-12-18T07:28:15;20.33;;;10.98;;
35562;SDS011;21665;40.108;18.302;2022-12-18T07:30:45;13.93;;;9.48;;
35562;SDS011;21665;40.108;18.302;2022-12-18T07:33:11;20.17;;;10.20;;
35562;SDS011;21665;40.108;18.302;2022-12-18T07:35:38;20.70;;;10.88;;
35562;SDS011;21665;40.108;18.302;2022-12-18T07:38:08;20.10;;;10.82;;
35562;SDS011;21665;40.108;18.302;2022-12-18T07:40:38;31.23;;;10.55;;
35562;SDS011;21665;40.108;18.302;2022-12-18T07:43:04;21.80;;;9.98;;
35562;SDS011;21665;40.108;18.302;2022-12-18T07:45:37;19.67;;;10.85;;
35562;SDS011;21665;40.108;18.302;2022-12-18T07:48:04;22.15;;;11.20;;
35562;SDS011;21665;40.108;18.302;2022-12-18T08:07:51;24.40;;;10.05;;
35562;SDS011;21665;40.108;18.302;2022-12-18T08:10:24;21.48;;;9.65;;
35562;SDS011;21665;40.108;18.302;2022-12-18T08:12:51;21.35;;;10.98;;
35562;SDS011;21665;40.108;18.302;2022-12-18T08:15:18;21.00;;;10.30;;
35562;SDS011;21665;40.108;18.302;2022-12-18T08:17:45;24.58;;;11.48;;
35562;SDS011;21665;40.108;18.302;2022-12-18T08:20:11;16.13;;;9.65;;
35562;SDS011;21665;40.108;18.302;2022-12-18T08:22:50;23.85;;;10.70;;
35562;SDS011;21665;40.108;18.302;2022-12-18T08:25:22;24.20;;;10.02;;
35562;SDS011;21665;40.108;18.302;2022-12-18T08:27:49;22.48;;;10.13;;
35562;SDS011;21665;40.108;18.302;2022-12-18T08:30:19;19.90;;;9.45;;
35562;SDS011;21665;40.108;18.302;2022-12-18T08:32:55;21.52;;;9.77;;
35562;SDS011;21665;40.108;18.302;2022-12-18T08:35:22;21.00;;;10.30;;
35562;SDS011;21665;40.108;18.302;2022-12-18T08:37:48;22.02;;;10.65;;
35562;SDS011;21665;40.108;18.302;2022-12-18T08:40:15;28.20;;;12.40;;
35562;SDS011;21665;40.108;18.302;2022-12-18T08:42:42;20.23;;;11.85;;
35562;SDS011;21665;40.108;18.302;2022-12-18T08:45:43;26.83;;;11.82;;
35562;SDS011;21665;40.108;18.302;2022-12-18T08:48:16;21.52;;;11.35;;
35562;SDS011;21665;40.108;18.302;2022-12-18T08:50:58;23.08;;;11.77;;
35562;SDS011;21665;40.108;18.302;2022-12-18T08:53:28;21.98;;;10.55;;
35562;SDS011;21665;40.108;18.302;2022-12-18T08:55:56;22.23;;;10.35;;
35562;SDS011;21665;40.108;18.302;2022-12-18T08:58:39;19.77;;;9.27;;
35562;SDS011;21665;40.108;18.302;2022-12-18T09:01:10;19.08;;;9.30;;
35562;SDS011;21665;40.108;18.302;2022-12-18T09:03:38;15.25;;;8.57;;
35562;SDS011;21665;40.108;18.302;2022-12-18T09:06:05;21.00;;;9.55;;
35562;SDS011;21665;40.108;18.302;2022-12-18T09:08:35;19.00;;;8.43;;
35562;SDS011;21665;40.108;18.302;2022-12-18T09:11:09;18.33;;;7.38;;
35562;SDS011;21665;40.108;18.302;2022-12-18T09:13:54;22.50;;;7.72;;
35562;SDS011;21665;40.108;18.302;2022-12-18T09:16:22;26.55;;;7.35;;
35562;SDS011;21665;40.108;18.302;2022-12-18T09:18:49;38.45;;;7.90;;
35562;SDS011;21665;40.108;18.302;2022-12-18T09:21:23;20.90;;;8.00;;
35562;SDS011;21665;40.108;18.302;2022-12-18T09:23:50;14.85;;;7.28;;
35562;SDS011;21665;40.108;18.302;2022-12-18T09:26:23;20.55;;;7.15;;
35562;SDS011;21665;40.108;18.302;2022-12-18T09:31:28;14.38;;;6.70;;
35562;SDS011;21665;40.108;18.302;2022-12-18T09:33:55;13.05;;;6.63;;
35562;SDS011;21665;40.108;18.302;2022-12-18T09:36:22;12.98;;;6.50;;
35562;SDS011;21665;40.108;18.302;2022-12-18T09:38:49;11.13;;;6.20;;
35562;SDS011;21665;40.108;18.302;2022-12-18T09:47:12;16.00;;;5.85;;
35562;SDS011;21665;40.108;18.302;2022-12-18T09:49:47;17.00;;;6.47;;
35562;SDS011;21665;40.108;18.302;2022-12-18T09:52:26;11.48;;;5.78;;
35562;SDS011;21665;40.108;18.302;2022-12-18T09:55:09;14.45;;;6.18;;
35562;SDS011;21665;40.108;18.302;2022-12-18T09:58:02;14.40;;;6.75;;
35562;SDS011;21665;40.108;18.302;2022-12-18T10:00:31;10.75;;;6.32;;
35562;SDS011;21665;40.108;18.302;2022-12-18T10:03:02;12.32;;;7.22;;
35562;SDS011;21665;40.108;18.302;2022-12-18T10:08:33;11.75;;;6.70;;
35562;SDS011;21665;40.108;18.302;2022-12-18T10:14:08;10.05;;;6.60;;
35562;SDS011;21665;40.108;18.302;2022-12-18T10:22:31;14.88;;;6.30;;
35562;SDS011;21665;40.108;18.302;2022-12-18T10:25:10;15.98;;;6.95;;
35562;SDS011;21665;40.108;18.302;2022-12-18T10:27:46;10.70;;;6.53;;
35562;SDS011;21665;40.108;18.302;2022-12-18T10:30:15;8.27;;;6.00;;
35562;SDS011;21665;40.108;18.302;2022-12-18T10:32:42;7.90;;;6.95;;
35562;SDS011;21665;40.108;18.302;2022-12-18T10:35:42;8.30;;;6.68;;
35562;SDS011;21665;40.108;18.302;2022-12-18T10:47:11;8.10;;;7.30;;
35562;SDS011;21665;40.108;18.302;2022-12-18T11:27:25;9.30;;;8.23;;
35562;SDS011;21665;40.108;18.302;2022-12-18T11:37:37;10.60;;;9.48;;
35562;SDS011;21665;40.108;18.302;2022-12-18T14:48:08;8.82;;;6.35;;
35562;SDS011;21665;40.108;18.302;2022-12-18T14:50:45;9.35;;;6.75;;
35562;SDS011;21665;40.108;18.302;2022-12-18T14:53:32;14.98;;;8.10;;
35562;SDS011;21665;40.108;18.302;2022-12-18T14:55:59;11.68;;;6.85;;
35562;SDS011;21665;40.108;18.302;2022-12-18T14:58:27;16.25;;;8.70;;
35562;SDS011;21665;40.108;18.302;2022-12-18T15:00:53;15.98;;;9.02;;
35562;SDS011;21665;40.108;18.302;2022-12-18T15:03:20;15.70;;;8.07;;
35562;SDS011;21665;40.108;18.302;2022-12-18T15:05:47;13.32;;;7.85;;
35562;SDS011;21665;40.108;18.302;2022-12-18T15:08:26;12.23;;;7.70;;
35562;SDS011;21665;40.108;18.302;2022-12-18T15:11:01;13.90;;;7.63;;
35562;SDS011;21665;40.108;18.302;2022-12-18T15:13:28;12.77;;;7.28;;
35562;SDS011;21665;40.108;18.302;2022-12-18T15:15:55;12.82;;;6.63;;
35562;SDS011;21665;40.108;18.302;2022-12-18T15:18:33;13.18;;;6.95;;
35562;SDS011;21665;40.108;18.302;2022-12-18T15:21:08;16.65;;;9.15;;
35562;SDS011;21665;40.108;18.302;2022-12-18T15:23:38;10.20;;;8.02;;
35562;SDS011;21665;40.108;18.302;2022-12-18T15:26:36;13.45;;;7.65;;
35562;SDS011;21665;40.108;18.302;2022-12-18T15:29:04;19.35;;;8.50;;
35562;SDS011;21665;40.108;18.302;2022-12-18T15:31:31;13.73;;;7.90;;
35562;SDS011;21665;40.108;18.302;2022-12-18T15:34:05;14.65;;;8.38;;
35562;SDS011;21665;40.108;18.302;2022-12-18T15:36:44;15.00;;;7.60;;
35562;SDS011;21665;40.108;18.302;2022-12-18T15:39:11;13.07;;;7.00;;
35562;SDS011;21665;40.108;18.302;2022-12-18T15:41:39;16.42;;;7.45;;
35562;SDS011;21665;40.108;18.302;2022-12-18T15:47:02;17.42;;;8.65;;
35562;SDS011;21665;40.108;18.302;2022-12-18T15:49:30;12.43;;;8.00;;
35562;SDS011;21665;40.108;18.302;2022-12-18T15:52:00;14.80;;;8.43;;
35562;SDS011;21665;40.108;18.302;2022-12-18T15:54:30;15.27;;;7.25;;
35562;SDS011;21665;40.108;18.302;2022-12-18T15:57:14;12.20;;;7.82;;
35562;SDS011;21665;40.108;18.302;2022-12-18T15:59:51;16.48;;;8.30;;
35562;SDS011;21665;40.108;18.302;2022-12-18T16:02:18;11.75;;;7.78;;
35562;SDS011;21665;40.108;18.302;2022-12-18T16:04:45;12.85;;;7.90;;
35562;SDS011;21665;40.108;18.302;2022-12-18T16:07:12;12.43;;;8.48;;
35562;SDS011;21665;40.108;18.302;2022-12-18T16:09:38;13.68;;;7.50;;
35562;SDS011;21665;40.108;18.302;2022-12-18T16:12:05;12.50;;;7.25;;
35562;SDS011;21665;40.108;18.302;2022-12-18T16:14:36;18.85;;;7.75;;
35562;SDS011;21665;40.108;18.302;2022-12-18T16:17:05;17.95;;;7.15;;
35562;SDS011;21665;40.108;18.302;2022-12-18T16:19:34;13.40;;;7.68;;
35562;SDS011;21665;40.108;18.302;2022-12-18T16:22:01;12.60;;;8.23;;
35562;SDS011;21665;40.108;18.302;2022-12-18T16:24:31;11.63;;;6.88;;
35562;SDS011;21665;40.108;18.302;2022-12-18T16:26:59;15.48;;;7.63;;
35562;SDS011;21665;40.108;18.302;2022-12-18T16:29:27;13.55;;;8.40;;
35562;SDS011;21665;40.108;18.302;2022-12-18T16:31:57;15.23;;;7.70;;
35562;SDS011;21665;40.108;18.302;2022-12-18T16:34:26;10.70;;;7.43;;
35562;SDS011;21665;40.108;18.302;2022-12-18T16:37:00;14.25;;;7.60;;
35562;SDS011;21665;40.108;18.302;2022-12-18T16:39:30;19.00;;;8.10;;
35562;SDS011;21665;40.108;18.302;2022-12-18T16:41:57;12.80;;;8.48;;
35562;SDS011;21665;40.108;18.302;2022-12-18T16:44:23;13.35;;;8.70;;
35562;SDS011;21665;40.108;18.302;2022-12-18T16:46:50;11.68;;;7.68;;
35562;SDS011;21665;40.108;18.302;2022-12-18T16:49:16;16.45;;;8.00;;
35562;SDS011;21665;40.108;18.302;2022-12-18T16:51:45;19.10;;;8.32;;
35562;SDS011;21665;40.108;18.302;2022-12-18T16:54:12;12.88;;;7.72;;
35562;SDS011;21665;40.108;18.302;2022-12-18T16:56:38;15.43;;;7.97;;
35562;SDS011;21665;40.108;18.302;2022-12-18T16:59:04;13.95;;;8.75;;
35562;SDS011;21665;40.108;18.302;2022-12-18T17:01:31;17.98;;;9.30;;
35562;SDS011;21665;40.108;18.302;2022-12-18T17:04:02;15.25;;;7.80;;
35562;SDS011;21665;40.108;18.302;2022-12-18T17:06:31;14.60;;;8.30;;
35562;SDS011;21665;40.108;18.302;2022-12-18T17:09:01;11.20;;;8.73;;
35562;SDS011;21665;40.108;18.302;2022-12-18T17:11:31;21.30;;;9.68;;
35562;SDS011;21665;40.108;18.302;2022-12-18T17:13:59;17.65;;;8.57;;
35562;SDS011;21665;40.108;18.302;2022-12-18T17:16:31;12.80;;;7.38;;
35562;SDS011;21665;40.108;18.302;2022-12-18T17:18:57;11.30;;;7.75;;
35562;SDS011;21665;40.108;18.302;2022-12-18T17:21:24;18.63;;;7.63;;
35562;SDS011;21665;40.108;18.302;2022-12-18T17:23:53;19.90;;;7.50;;
35562;SDS011;21665;40.108;18.302;2022-12-18T17:26:20;16.02;;;7.97;;
35562;SDS011;21665;40.108;18.302;2022-12-18T17:28:49;12.55;;;8.40;;
35562;SDS011;21665;40.108;18.302;2022-12-18T17:31:17;21.30;;;10.50;;
35562;SDS011;21665;40.108;18.302;2022-12-18T17:33:46;23.33;;;12.82;;
35562;SDS011;21665;40.108;18.302;2022-12-18T17:36:12;40.80;;;24.65;;
35562;SDS011;21665;40.108;18.302;2022-12-18T17:38:39;33.53;;;20.05;;
35562;SDS011;21665;40.108;18.302;2022-12-18T17:41:09;42.90;;;23.90;;
35562;SDS011;21665;40.108;18.302;2022-12-18T17:43:37;36.63;;;23.50;;
35562;SDS011;21665;40.108;18.302;2022-12-18T17:46:13;68.38;;;34.15;;
35562;SDS011;21665;40.108;18.302;2022-12-18T17:48:39;33.03;;;19.50;;
35562;SDS011;21665;40.108;18.302;2022-12-18T17:51:07;32.50;;;19.23;;
35562;SDS011;21665;40.108;18.302;2022-12-18T17:53:34;27.33;;;15.82;;
35562;SDS011;21665;40.108;18.302;2022-12-18T17:56:00;25.10;;;13.40;;
35562;SDS011;21665;40.108;18.302;2022-12-18T17:58:34;24.85;;;12.93;;
35562;SDS011;21665;40.108;18.302;2022-12-18T18:01:02;20.63;;;11.27;;
35562;SDS011;21665;40.108;18.302;2022-12-18T18:03:30;17.05;;;10.27;;
35562;SDS011;21665;40.108;18.302;2022-12-18T18:05:58;12.57;;;9.18;;
35562;SDS011;21665;40.108;18.302;2022-12-18T18:08:26;15.30;;;10.45;;
35562;SDS011;21665;40.108;18.302;2022-12-18T18:10:53;19.80;;;12.13;;
35562;SDS011;21665;40.108;18.302;2022-12-18T18:13:40;16.27;;;10.45;;
35562;SDS011;21665;40.108;18.302;2022-12-18T18:19:03;17.65;;;10.68;;
35562;SDS011;21665;40.108;18.302;2022-12-18T18:21:32;16.40;;;9.18;;
35562;SDS011;21665;40.108;18.302;2022-12-18T18:24:00;15.32;;;9.45;;
35562;SDS011;21665;40.108;18.302;2022-12-18T18:26:28;15.02;;;9.15;;
35562;SDS011;21665;40.108;18.302;2022-12-18T18:28:59;19.02;;;11.02;;
35562;SDS011;21665;40.108;18.302;2022-12-18T18:31:27;15.43;;;10.52;;
35562;SDS011;21665;40.108;18.302;2022-12-18T18:33:54;22.42;;;12.30;;
35562;SDS011;21665;40.108;18.302;2022-12-18T18:36:22;37.58;;;28.40;;
35562;SDS011;21665;40.108;18.302;2022-12-18T18:38:49;19.23;;;13.43;;
35562;SDS011;21665;40.108;18.302;2022-12-18T18:41:16;16.15;;;9.98;;
35562;SDS011;21665;40.108;18.302;2022-12-18T18:43:43;20.92;;;14.48;;
35562;SDS011;21665;40.108;18.302;2022-12-18T18:46:14;26.38;;;16.70;;
35562;SDS011;21665;40.108;18.302;2022-12-18T18:48:41;18.98;;;12.02;;
35562;SDS011;21665;40.108;18.302;2022-12-18T18:51:09;27.50;;;16.67;;
35562;SDS011;21665;40.108;18.302;2022-12-18T18:53:38;14.43;;;11.57;;
35562;SDS011;21665;40.108;18.302;2022-12-18T18:56:09;17.23;;;11.80;;
35562;SDS011;21665;40.108;18.302;2022-12-18T18:58:37;15.05;;;10.20;;
35562;SDS011;21665;40.108;18.302;2022-12-18T19:01:05;23.00;;;10.70;;
35562;SDS011;21665;40.108;18.302;2022-12-18T19:03:39;13.38;;;11.20;;
35562;SDS011;21665;40.108;18.302;2022-12-18T19:06:06;16.25;;;9.35;;
35562;SDS011;21665;40.108;18.302;2022-12-18T19:08:34;20.90;;;10.38;;
35562;SDS011;21665;40.108;18.302;2022-12-18T19:11:04;20.58;;;10.77;;
35562;SDS011;21665;40.108;18.302;2022-12-18T19:13:52;18.35;;;9.82;;
35562;SDS011;21665;40.108;18.302;2022-12-18T19:16:19;19.58;;;10.73;;
35562;SDS011;21665;40.108;18.302;2022-12-18T19:18:46;18.58;;;10.02;;
35562;SDS011;21665;40.108;18.302;2022-12-18T19:21:12;16.25;;;10.70;;
35562;SDS011;21665;40.108;18.302;2022-12-18T19:23:38;15.20;;;11.07;;
35562;SDS011;21665;40.108;18.302;2022-12-18T19:26:06;18.73;;;10.18;;
35562;SDS011;21665;40.108;18.302;2022-12-18T19:28:34;13.85;;;10.32;;
35562;SDS011;21665;40.108;18.302;2022-12-18T19:31:02;17.15;;;9.43;;
35562;SDS011;21665;40.108;18.302;2022-12-18T19:33:32;16.40;;;9.57;;
35562;SDS011;21665;40.108;18.302;2022-12-18T19:36:02;15.52;;;9.63;;
35562;SDS011;21665;40.108;18.302;2022-12-18T19:38:44;25.77;;;10.48;;
35562;SDS011;21665;40.108;18.302;2022-12-18T19:41:12;17.75;;;10.35;;
35562;SDS011;21665;40.108;18.302;2022-12-18T19:43:38;16.70;;;9.30;;
35562;SDS011;21665;40.108;18.302;2022-12-18T20:13:58;12.60;;;8.70;;
35562;SDS011;21665;40.108;18.302;2022-12-18T20:16:28;15.32;;;9.05;;
35562;SDS011;21665;40.108;18.302;2022-12-18T20:19:03;12.35;;;8.95;;
35562;SDS011;21665;40.108;18.302;2022-12-18T20:24:24;16.98;;;9.52;;
35562;SDS011;21665;40.108;18.302;2022-12-18T20:27:00;13.93;;;9.55;;
35562;SDS011;21665;40.108;18.302;2022-12-18T20:29:37;11.48;;;8.68;;
35562;SDS011;21665;40.108;18.302;2022-12-18T20:32:33;19.65;;;10.15;;
35562;SDS011;21665;40.108;18.302;2022-12-18T20:35:10;13.18;;;9.48;;
35562;SDS011;21665;40.108;18.302;2022-12-18T20:44:50;15.80;;;9.77;;
35562;SDS011;21665;40.108;18.302;2022-12-18T20:47:27;16.85;;;8.80;;
35562;SDS011;21665;40.108;18.302;2022-12-18T20:50:07;32.58;;;10.52;;
35562;SDS011;21665;40.108;18.302;2022-12-18T20:52:37;15.23;;;8.70;;
35562;SDS011;21665;40.108;18.302;2022-12-18T20:55:03;13.25;;;8.65;;
35562;SDS011;21665;40.108;18.302;2022-12-18T20:57:36;19.80;;;9.30;;
35562;SDS011;21665;40.108;18.302;2022-12-18T21:00:06;24.00;;;9.93;;
35562;SDS011;21665;40.108;18.302;2022-12-18T21:02:36;14.82;;;9.02;;
35562;SDS011;21665;40.108;18.302;2022-12-18T21:05:05;23.77;;;9.77;;
35562;SDS011;21665;40.108;18.302;2022-12-18T21:07:41;14.98;;;8.98;;
35562;SDS011;21665;40.108;18.302;2022-12-18T21:10:11;13.38;;;7.93;;
35562;SDS011;21665;40.108;18.302;2022-12-18T21:12:37;17.33;;;8.63;;
35562;SDS011;21665;40.108;18.302;2022-12-18T21:15:14;19.50;;;8.70;;
35562;SDS011;21665;40.108;18.302;2022-12-18T21:17:40;21.50;;;9.95;;
35562;SDS011;21665;40.108;18.302;2022-12-18T21:20:07;17.70;;;8.77;;
35562;SDS011;21665;40.108;18.302;2022-12-18T21:22:37;15.50;;;8.45;;
35562;SDS011;21665;40.108;18.302;2022-12-18T21:25:09;19.38;;;9.02;;
35562;SDS011;21665;40.108;18.302;2022-12-18T21:27:36;18.65;;;8.52;;
35562;SDS011;21665;40.108;18.302;2022-12-18T21:30:11;23.00;;;9.40;;
35562;SDS011;21665;40.108;18.302;2022-12-18T21:32:41;15.10;;;9.00;;
35562;SDS011;21665;40.108;18.302;2022-12-18T21:35:07;20.23;;;9.18;;
35562;SDS011;21665;40.108;18.302;2022-12-18T21:44:16;16.92;;;8.10;;